Dieterich, Illinois
Current Conditions -  °F | °C
As of 10:15 PM on Sunday 25 Jan 2015 (Local Time) from K1H2 Reporting Station
Overcast Overcast  
Wind Chill: 21°   Ceiling: 1300
Heat Index: 32°   Visibility: 10mi
Dew Point: 26°   Wind: 15mph
Humidity: 79%   Direction: 340°NNW
Pressure: 29.92"   Gusts: 24mph
Location:  39.06°N, 88.38°W
Report Text: K1H2 260415Z AUTO 34013G21KT 10SM OVC013 00/M03 A2992 RMK AO2 T10011033
Loading
Personal Weather Stations






























Interactive Weather Map New forecast layout! Learn more

10-Day Weather Forecast

Advertisements
Track Severe Weather on mobile